createdAt,value
2023-03-27T00:01:19.389Z,0.30
2023-03-27T00:03:49.734Z,0.28
2023-03-27T00:06:20.664Z,0.20
2023-03-27T00:08:52.057Z,0.32
2023-03-27T00:11:21.203Z,0.30
2023-03-27T00:13:51.471Z,0.40
2023-03-27T00:16:20.285Z,0.35
2023-03-27T00:18:48.992Z,0.30
2023-03-27T00:21:17.615Z,0.35
2023-03-27T00:23:46.190Z,0.22
2023-03-27T00:26:16.235Z,0.50
2023-03-27T00:28:44.804Z,0.43
2023-03-27T00:31:15.457Z,0.25
2023-03-27T00:33:44.048Z,0.30
2023-03-27T00:36:13.247Z,0.30
2023-03-27T00:38:41.744Z,0.30
2023-03-27T00:41:10.368Z,0.32
2023-03-27T00:43:44.306Z,0.20
2023-03-27T00:46:31.529Z,0.35
2023-03-27T00:49:03.191Z,0.20
2023-03-27T00:51:32.939Z,0.30
2023-03-27T00:54:02.019Z,0.13
2023-03-27T00:56:30.735Z,0.30
2023-03-27T00:59:04.187Z,0.20
2023-03-27T01:01:33.163Z,0.30
2023-03-27T01:04:05.681Z,0.30
2023-03-27T01:06:34.484Z,0.40
2023-03-27T01:09:04.678Z,0.30
2023-03-27T01:11:47.252Z,0.30
2023-03-27T01:14:28.060Z,0.30
2023-03-27T01:17:09.938Z,0.50
2023-03-27T01:20:02.695Z,0.40
2023-03-27T01:23:04.114Z,0.40
2023-03-27T01:26:03.014Z,0.30
2023-03-27T01:28:39.935Z,0.30
2023-03-27T01:31:30.793Z,0.30
2023-03-27T01:34:30.989Z,0.23
2023-03-27T01:37:30.909Z,0.28
2023-03-27T01:40:07.690Z,0.30
2023-03-27T01:42:39.886Z,0.40
2023-03-27T01:45:14.121Z,0.25
2023-03-27T01:47:49.944Z,0.30
2023-03-27T01:50:23.330Z,0.30
2023-03-27T01:52:57.731Z,0.30
2023-03-27T01:55:32.506Z,0.30
2023-03-27T01:58:03.419Z,0.38
2023-03-27T02:00:51.628Z,0.40
2023-03-27T02:03:30.448Z,0.30
2023-03-27T02:06:04.473Z,0.30
2023-03-27T02:08:38.735Z,0.30
2023-03-27T02:11:17.153Z,0.20
2023-03-27T02:13:49.788Z,0.35
2023-03-27T02:16:23.043Z,0.20
2023-03-27T02:18:56.672Z,0.20
2023-03-27T02:21:25.275Z,0.40
2023-03-27T02:23:54.174Z,0.30
2023-03-27T02:26:24.183Z,0.20
2023-03-27T02:29:09.756Z,0.38
2023-03-27T02:31:52.765Z,0.20
2023-03-27T02:34:53.851Z,0.22
2023-03-27T02:37:32.284Z,0.20
2023-03-27T02:40:31.618Z,0.20
2023-03-27T02:43:35.150Z,0.30
2023-03-27T02:46:10.859Z,0.30
2023-03-27T02:48:44.379Z,0.20
2023-03-27T02:51:18.863Z,0.15
2023-03-27T02:53:53.642Z,0.20
2023-03-27T02:56:26.199Z,0.30
2023-03-27T02:58:59.922Z,0.40
2023-03-27T03:01:42.042Z,0.30
2023-03-27T03:04:28.391Z,0.20
2023-03-27T03:07:29.332Z,0.20
2023-03-27T03:09:58.283Z,0.30
2023-03-27T03:12:26.558Z,0.20
2023-03-27T03:14:57.661Z,0.10
2023-03-27T03:17:25.985Z,0.20
2023-03-27T03:19:54.206Z,0.20
2023-03-27T03:22:22.956Z,0.30
2023-03-27T03:24:51.207Z,0.20
2023-03-27T03:27:21.062Z,0.20
2023-03-27T03:30:18.418Z,0.20
2023-03-27T03:33:07.115Z,0.28
2023-03-27T03:35:35.859Z,0.10
2023-03-27T03:38:11.285Z,0.25
2023-03-27T03:40:46.940Z,0.20
2023-03-27T03:43:15.162Z,0.20
2023-03-27T03:45:44.776Z,0.30
2023-03-27T03:48:13.136Z,0.30
2023-03-27T03:50:41.370Z,0.90
2023-03-27T03:53:09.680Z,0.22
2023-03-27T03:55:38.113Z,0.20
2023-03-27T03:58:07.153Z,0.30
2023-03-27T04:00:39.125Z,0.20
2023-03-27T04:03:15.804Z,0.20
2023-03-27T04:05:45.543Z,0.25
2023-03-27T04:08:14.152Z,0.30
2023-03-27T04:10:57.039Z,0.30
2023-03-27T04:13:53.613Z,0.30
2023-03-27T04:16:29.791Z,0.80
2023-03-27T04:19:03.170Z,0.50
2023-03-27T04:21:34.314Z,0.50
2023-03-27T04:24:03.285Z,0.47
2023-03-27T04:26:44.105Z,0.50
2023-03-27T04:29:30.175Z,0.50
2023-03-27T04:32:02.277Z,0.40
2023-03-27T04:34:58.711Z,0.43
2023-03-27T04:37:45.897Z,0.50
2023-03-27T04:40:32.387Z,0.40
2023-03-27T04:43:01.257Z,0.40
2023-03-27T04:45:33.763Z,0.60
2023-03-27T04:48:02.743Z,3.30
2023-03-27T04:50:34.284Z,5.30
2023-03-27T04:53:03.076Z,2.55
2023-03-27T04:55:38.837Z,1.67
2023-03-27T04:58:08.917Z,1.40
2023-03-27T05:00:38.799Z,1.05
2023-03-27T05:03:26.042Z,0.65
2023-03-27T05:06:05.106Z,0.60
2023-03-27T05:08:33.702Z,0.35
2023-03-27T05:11:01.952Z,0.40
2023-03-27T05:13:38.696Z,0.50
2023-03-27T05:16:09.213Z,0.30
2023-03-27T05:18:45.101Z,0.40
2023-03-27T05:21:14.999Z,0.50
2023-03-27T05:23:43.492Z,0.98
2023-03-27T05:26:11.795Z,0.73
2023-03-27T05:28:51.321Z,0.90
2023-03-27T05:31:20.300Z,1.02
2023-03-27T05:34:09.258Z,0.70
2023-03-27T05:36:41.518Z,0.77
2023-03-27T05:39:10.337Z,0.70
2023-03-27T05:41:41.563Z,0.65
2023-03-27T05:44:09.919Z,0.60
2023-03-27T05:46:42.710Z,0.40
2023-03-27T05:49:16.727Z,0.50
2023-03-27T05:51:49.105Z,0.73
2023-03-27T05:54:21.730Z,0.50
2023-03-27T05:56:56.090Z,0.40
2023-03-27T05:59:24.489Z,0.47
2023-03-27T06:01:58.552Z,0.30
2023-03-27T06:04:35.431Z,0.50
2023-03-27T06:07:10.445Z,0.50
2023-03-27T06:09:39.130Z,0.60
2023-03-27T06:12:26.060Z,0.65
2023-03-27T06:15:02.877Z,1.00
2023-03-27T06:17:51.524Z,0.55
2023-03-27T06:20:21.394Z,0.90
2023-03-27T06:22:56.706Z,0.68
2023-03-27T06:25:33.538Z,0.70
2023-03-27T06:28:04.563Z,0.60
2023-03-27T06:30:38.906Z,0.70
2023-03-27T06:33:25.621Z,0.70
2023-03-27T06:35:55.416Z,0.50
2023-03-27T06:38:32.945Z,0.60
2023-03-27T06:41:02.918Z,0.70
2023-03-27T06:43:51.427Z,0.90
2023-03-27T06:46:45.171Z,0.63
2023-03-27T06:49:36.681Z,0.50
2023-03-27T06:52:12.988Z,0.63
2023-03-27T06:54:42.875Z,0.60
2023-03-27T06:57:11.491Z,0.50
2023-03-27T07:00:00.865Z,0.38
2023-03-27T07:02:49.793Z,0.50
2023-03-27T07:05:40.801Z,0.38
2023-03-27T07:08:22.360Z,0.40
2023-03-27T07:11:09.820Z,0.30
2023-03-27T07:13:45.318Z,0.40
2023-03-27T07:16:22.524Z,0.50
2023-03-27T07:18:51.402Z,0.65
2023-03-27T07:21:19.782Z,0.55
2023-03-27T07:23:48.269Z,0.50
2023-03-27T07:26:22.823Z,0.40
2023-03-27T07:29:03.108Z,0.65
2023-03-27T07:31:49.012Z,0.45
2023-03-27T07:34:20.904Z,0.50
2023-03-27T07:37:18.410Z,0.40
2023-03-27T07:40:07.880Z,0.40
2023-03-27T07:42:38.878Z,0.40
2023-03-27T07:45:10.705Z,0.50
2023-03-27T07:47:38.958Z,0.30
2023-03-27T07:50:11.354Z,0.60
2023-03-27T07:52:43.536Z,0.50
2023-03-27T07:55:14.412Z,0.40
2023-03-27T07:58:00.405Z,1.00
2023-03-27T08:00:35.572Z,1.05
2023-03-27T08:03:16.584Z,0.93
2023-03-27T08:05:57.840Z,1.00
2023-03-27T08:08:28.930Z,0.90
2023-03-27T08:10:59.782Z,1.40
2023-03-27T08:13:33.612Z,1.83
2023-03-27T08:16:08.224Z,1.52
2023-03-27T08:18:37.958Z,1.77
2023-03-27T08:21:09.517Z,2.00
2023-03-27T08:23:39.739Z,1.70
2023-03-27T08:26:27.913Z,1.90
2023-03-27T08:29:04.374Z,2.08
2023-03-27T08:31:35.234Z,1.88
2023-03-27T08:34:06.094Z,2.30
2023-03-27T08:36:42.970Z,1.67
2023-03-27T08:39:11.446Z,2.17
2023-03-27T08:41:56.254Z,2.45
2023-03-27T08:44:32.949Z,2.17
2023-03-27T08:47:11.722Z,2.10
2023-03-27T08:49:52.629Z,2.25
2023-03-27T08:52:43.306Z,2.20
2023-03-27T08:55:22.378Z,2.10
2023-03-27T08:57:57.829Z,2.55
2023-03-27T09:00:36.806Z,1.95
2023-03-27T09:03:22.420Z,2.55
2023-03-27T09:05:57.629Z,2.92
2023-03-27T09:08:40.176Z,3.17
2023-03-27T09:11:21.301Z,3.05
2023-03-27T09:14:00.389Z,3.60
2023-03-27T09:16:35.376Z,3.13
2023-03-27T09:19:12.724Z,3.20
2023-03-27T09:21:45.675Z,3.38
2023-03-27T09:24:28.324Z,3.60
2023-03-27T09:27:29.390Z,3.53
2023-03-27T09:30:20.366Z,3.70
2023-03-27T09:33:00.180Z,3.55
2023-03-27T09:35:28.625Z,3.47
2023-03-27T09:38:01.160Z,3.22
2023-03-27T09:40:33.922Z,2.97
2023-03-27T09:43:09.375Z,3.60
2023-03-27T09:45:41.961Z,3.45
2023-03-27T09:48:17.111Z,3.42
2023-03-27T09:50:47.489Z,3.20
2023-03-27T09:53:35.336Z,3.60
2023-03-27T09:56:19.013Z,3.28
2023-03-27T09:58:53.249Z,3.45
2023-03-27T10:01:30.863Z,3.27
2023-03-27T10:04:16.265Z,3.42
2023-03-27T10:06:49.398Z,2.97
2023-03-27T10:09:24.716Z,3.22
2023-03-27T10:12:04.598Z,2.80
2023-03-27T10:14:36.629Z,3.67
2023-03-27T10:17:06.500Z,3.35
2023-03-27T10:19:41.434Z,2.85
2023-03-27T10:22:21.772Z,3.08
2023-03-27T10:24:50.978Z,3.03
2023-03-27T10:27:25.515Z,2.47
2023-03-27T10:30:30.750Z,2.47
2023-03-27T10:33:31.222Z,2.97
2023-03-27T10:36:14.554Z,2.50
2023-03-27T10:38:44.059Z,2.75
2023-03-27T10:41:29.455Z,2.53
2023-03-27T10:44:00.807Z,2.90
2023-03-27T10:46:31.506Z,3.05
2023-03-27T10:49:19.034Z,3.97
2023-03-27T10:51:51.764Z,2.90
2023-03-27T10:54:35.656Z,3.30
2023-03-27T10:57:11.148Z,2.60
2023-03-27T10:59:45.334Z,2.58
2023-03-27T11:02:32.428Z,2.20
2023-03-27T11:05:05.745Z,2.65
2023-03-27T11:07:41.811Z,2.50
2023-03-27T11:10:17.863Z,2.30
2023-03-27T11:12:53.234Z,2.45
2023-03-27T11:15:26.401Z,2.25
2023-03-27T11:18:01.471Z,3.45
2023-03-27T11:20:45.875Z,2.33
2023-03-27T11:23:28.682Z,2.03
2023-03-27T11:26:16.833Z,2.30
2023-03-27T11:31:32.605Z,2.55
2023-03-27T11:34:06.320Z,2.33
2023-03-27T11:36:44.811Z,2.20
2023-03-27T11:39:30.088Z,2.40
2023-03-27T11:42:01.266Z,2.88
2023-03-27T11:44:30.789Z,2.25
2023-03-27T11:47:55.774Z,2.40
2023-03-27T11:50:31.865Z,2.65
2023-03-27T11:53:18.683Z,2.28
2023-03-27T11:56:38.853Z,1.90
2023-03-27T11:59:29.579Z,1.75
2023-03-27T12:02:15.711Z,1.83
2023-03-27T12:04:51.404Z,2.40
2023-03-27T12:07:40.406Z,1.90
2023-03-27T12:10:27.457Z,2.03
2023-03-27T12:13:41.946Z,2.10
2023-03-27T12:16:48.128Z,1.90
2023-03-27T12:19:49.594Z,1.60
2023-03-27T12:22:35.877Z,2.00
2023-03-27T12:25:30.790Z,1.60
2023-03-27T12:28:48.756Z,1.50
2023-03-27T12:31:44.086Z,1.65
2023-03-27T12:34:19.482Z,1.50
2023-03-27T12:36:49.417Z,1.92
2023-03-27T12:39:21.824Z,1.65
2023-03-27T12:41:51.018Z,1.35
2023-03-27T12:44:33.622Z,1.35
2023-03-27T12:47:17.025Z,2.00
2023-03-27T12:49:48.587Z,1.40
2023-03-27T12:52:26.935Z,1.20
2023-03-27T12:55:31.043Z,1.30
2023-03-27T12:58:01.351Z,1.45
2023-03-27T13:01:00.303Z,1.52
2023-03-27T13:04:09.923Z,1.38
2023-03-27T13:06:50.908Z,1.33
2023-03-27T13:09:52.918Z,1.30
2023-03-27T13:12:49.037Z,1.20
2023-03-27T13:15:45.900Z,1.05
2023-03-27T13:18:37.241Z,1.60
2023-03-27T13:21:19.130Z,1.30
2023-03-27T13:24:08.729Z,1.13
2023-03-27T13:26:53.956Z,1.50
2023-03-27T13:29:27.110Z,1.15
2023-03-27T13:32:07.318Z,1.20
2023-03-27T13:35:09.801Z,1.20
2023-03-27T13:37:49.059Z,1.55
2023-03-27T13:40:27.187Z,1.10
2023-03-27T13:43:15.602Z,1.05
2023-03-27T13:45:48.240Z,1.20
2023-03-27T13:49:04.756Z,1.42
2023-03-27T13:52:15.993Z,0.88
2023-03-27T13:55:17.789Z,1.10
2023-03-27T13:58:24.238Z,1.00
2023-03-27T14:01:35.527Z,0.60
2023-03-27T14:04:46.014Z,0.60
2023-03-27T14:07:52.429Z,0.70
2023-03-27T14:10:33.192Z,0.60
2023-03-27T14:13:22.524Z,0.60
2023-03-27T14:16:50.446Z,0.70
2023-03-27T14:19:42.178Z,0.60
2023-03-27T14:22:22.800Z,0.40
2023-03-27T14:24:58.891Z,0.77
2023-03-27T14:27:55.093Z,0.50
2023-03-27T14:30:27.312Z,0.60
2023-03-27T14:33:19.943Z,0.50
2023-03-27T14:35:55.587Z,0.40
2023-03-27T14:38:28.439Z,0.80
2023-03-27T14:40:59.179Z,0.60
2023-03-27T14:44:04.015Z,0.68
2023-03-27T14:46:36.217Z,1.10
2023-03-27T14:49:19.674Z,0.80
2023-03-27T14:51:55.894Z,1.48
2023-03-27T14:54:54.737Z,0.60
2023-03-27T14:57:27.351Z,0.90
2023-03-27T15:00:00.579Z,0.60
2023-03-27T15:02:32.651Z,1.00
2023-03-27T15:05:09.750Z,1.00
2023-03-27T15:07:42.115Z,1.30
2023-03-27T15:10:26.240Z,1.25
2023-03-27T15:13:13.224Z,1.17
2023-03-27T15:15:50.365Z,1.00
2023-03-27T15:18:28.226Z,1.10
2023-03-27T15:21:01.743Z,1.08
2023-03-27T15:23:37.820Z,1.10
2023-03-27T15:26:13.205Z,0.90
2023-03-27T15:28:44.766Z,0.82
2023-03-27T15:33:52.714Z,0.80
2023-03-27T15:36:26.595Z,1.10
2023-03-27T15:38:56.385Z,0.70
2023-03-27T15:41:39.321Z,0.60
2023-03-27T15:44:12.781Z,0.70
2023-03-27T15:46:55.461Z,0.70
2023-03-27T15:49:27.490Z,0.82
2023-03-27T15:51:56.757Z,1.63
2023-03-27T15:54:28.554Z,0.90
2023-03-27T15:57:10.352Z,1.08
2023-03-27T15:59:52.389Z,1.00
2023-03-27T16:02:26.383Z,0.70
2023-03-27T16:04:57.230Z,0.88
2023-03-27T16:07:30.098Z,0.80
2023-03-27T16:10:02.507Z,1.08
2023-03-27T16:12:34.176Z,0.93
2023-03-27T16:15:08.139Z,0.80
2023-03-27T16:17:46.206Z,0.68
2023-03-27T16:20:37.271Z,0.65
2023-03-27T16:23:06.336Z,0.95
2023-03-27T16:25:34.832Z,0.90
2023-03-27T16:28:03.360Z,1.00
2023-03-27T16:30:35.320Z,0.85
2023-03-27T16:33:14.854Z,0.63
2023-03-27T16:35:44.304Z,1.27
2023-03-27T16:38:13.645Z,1.05
2023-03-27T16:40:42.046Z,0.90
2023-03-27T16:43:10.426Z,0.95
2023-03-27T16:45:39.490Z,1.10
2023-03-27T16:48:09.184Z,1.00
2023-03-27T16:50:37.478Z,1.05
2023-03-27T16:53:05.664Z,0.85
2023-03-27T16:55:33.942Z,1.10
2023-03-27T16:58:03.249Z,0.80
2023-03-27T17:00:31.618Z,1.08
2023-03-27T17:03:00.849Z,45.40
2023-03-27T17:05:34.458Z,86.93
2023-03-27T17:08:05.351Z,84.47
2023-03-27T17:10:35.187Z,115.55
2023-03-27T17:13:03.532Z,97.55
2023-03-27T17:15:31.723Z,58.47
2023-03-27T17:18:00.307Z,27.30
2023-03-27T17:20:30.374Z,13.20
2023-03-27T17:22:58.689Z,6.78
2023-03-27T17:25:27.962Z,3.50
2023-03-27T17:27:56.373Z,2.33
2023-03-27T17:30:38.126Z,2.20
2023-03-27T17:33:09.617Z,1.50
2023-03-27T17:35:41.029Z,1.42
2023-03-27T17:38:10.383Z,1.45
2023-03-27T17:40:40.505Z,1.20
2023-03-27T17:43:09.172Z,1.23
2023-03-27T17:45:41.708Z,1.50
2023-03-27T17:48:11.402Z,1.33
2023-03-27T17:50:41.116Z,1.77
2023-03-27T17:53:09.506Z,1.35
2023-03-27T17:55:39.074Z,1.70
2023-03-27T17:58:09.961Z,1.30
2023-03-27T18:00:39.340Z,1.02
2023-03-27T18:03:08.911Z,0.88
2023-03-27T18:05:38.654Z,1.00
2023-03-27T18:08:10.244Z,2.20
2023-03-27T18:13:07.390Z,2.00
2023-03-27T18:15:35.867Z,1.30
2023-03-27T18:18:04.510Z,1.73
2023-03-27T18:20:32.924Z,1.23
2023-03-27T18:23:01.338Z,1.30
2023-03-27T18:25:31.090Z,2.00
2023-03-27T18:27:59.760Z,1.80
2023-03-27T18:30:28.787Z,2.15
2023-03-27T18:32:57.767Z,2.55
2023-03-27T18:35:26.097Z,2.80
2023-03-27T18:37:54.341Z,2.35
2023-03-27T18:40:22.891Z,2.50
2023-03-27T18:42:52.929Z,1.88
2023-03-27T18:45:21.867Z,1.85
2023-03-27T18:47:50.104Z,2.38
2023-03-27T18:50:18.606Z,2.05
2023-03-27T18:52:46.782Z,2.40
2023-03-27T18:55:15.151Z,2.00
2023-03-27T18:57:43.338Z,1.92
2023-03-27T19:00:18.345Z,1.92
2023-03-27T19:02:48.005Z,2.60
2023-03-27T19:05:17.770Z,2.40
2023-03-27T19:07:46.926Z,2.75
2023-03-27T19:10:15.376Z,2.13
2023-03-27T19:12:47.218Z,2.40
2023-03-27T19:15:20.308Z,2.15
2023-03-27T19:18:07.506Z,2.40
2023-03-27T19:20:51.434Z,2.17
2023-03-27T19:23:38.699Z,2.17
2023-03-27T19:26:08.598Z,1.65
2023-03-27T19:28:37.779Z,1.70
2023-03-27T19:31:08.349Z,1.60
2023-03-27T19:33:36.747Z,1.83
2023-03-27T19:36:07.940Z,2.08
2023-03-27T19:38:37.380Z,24.13
2023-03-27T19:41:09.305Z,38.75
2023-03-27T19:43:38.165Z,104.75
2023-03-27T19:48:43.612Z,64.10
2023-03-27T19:51:19.905Z,30.65
2023-03-27T19:53:51.708Z,15.05
2023-03-27T19:56:23.275Z,8.48
2023-03-27T19:58:52.410Z,4.78
2023-03-27T20:01:22.300Z,3.30
2023-03-27T20:03:50.819Z,2.38
2023-03-27T20:06:20.645Z,1.80
2023-03-27T20:08:49.241Z,1.48
2023-03-27T20:11:18.076Z,1.40
2023-03-27T20:13:56.168Z,1.33
2023-03-27T20:16:28.142Z,1.20
2023-03-27T20:19:04.062Z,1.92
2023-03-27T20:21:34.597Z,2.30
2023-03-27T20:24:09.781Z,1.80
2023-03-27T20:26:42.553Z,2.00
2023-03-27T20:29:19.010Z,1.92
2023-03-27T20:31:49.539Z,2.72
2023-03-27T20:34:20.095Z,2.37
2023-03-27T20:36:52.901Z,2.13
2023-03-27T20:39:47.149Z,2.10
2023-03-27T20:42:18.520Z,1.60
2023-03-27T20:44:55.148Z,1.90
2023-03-27T20:47:25.295Z,2.38
2023-03-27T20:49:58.786Z,1.63
2023-03-27T20:52:27.420Z,1.80
2023-03-27T20:54:56.969Z,2.05
2023-03-27T20:57:25.390Z,1.90
2023-03-27T20:59:54.430Z,1.90
2023-03-27T21:02:24.338Z,2.05
2023-03-27T21:04:52.920Z,2.28
2023-03-27T21:07:21.158Z,2.35
2023-03-27T21:09:49.420Z,1.70
2023-03-27T21:12:17.737Z,2.00
2023-03-27T21:14:46.124Z,2.17
2023-03-27T21:17:14.358Z,1.80
2023-03-27T21:19:44.186Z,2.00
2023-03-27T21:22:12.446Z,1.88
2023-03-27T21:24:41.714Z,2.15
2023-03-27T21:27:09.976Z,11.93
2023-03-27T21:29:38.490Z,113.70
2023-03-27T21:32:08.117Z,146.38
2023-03-27T21:34:36.581Z,103.47
2023-03-27T21:37:06.422Z,137.45
2023-03-27T21:39:34.881Z,89.15
2023-03-27T21:42:03.219Z,49.63
2023-03-27T21:44:31.714Z,28.05
2023-03-27T21:46:59.944Z,20.58
2023-03-27T21:49:28.391Z,52.80
2023-03-27T21:51:56.582Z,71.35
2023-03-27T21:54:26.409Z,58.30
2023-03-27T21:56:54.687Z,64.13
2023-03-27T21:59:22.961Z,44.53
2023-03-27T22:01:51.538Z,48.97
2023-03-27T22:04:21.681Z,29.98
2023-03-27T22:06:50.882Z,18.80
2023-03-27T22:09:19.623Z,11.57
2023-03-27T22:11:49.575Z,31.38
2023-03-27T22:14:17.941Z,71.03
2023-03-27T22:16:46.417Z,70.15
2023-03-27T22:19:14.622Z,78.18
2023-03-27T22:21:42.993Z,75.35
2023-03-27T22:24:11.462Z,60.35
2023-03-27T22:26:41.608Z,35.30
2023-03-27T22:29:11.283Z,19.27
2023-03-27T22:31:39.749Z,12.05
2023-03-27T22:34:08.294Z,17.38
2023-03-27T22:36:37.582Z,25.23
2023-03-27T22:39:06.248Z,61.63
2023-03-27T22:41:34.629Z,78.15
2023-03-27T22:44:03.423Z,103.90
2023-03-27T22:46:33.155Z,71.72
2023-03-27T22:49:01.440Z,49.90
2023-03-27T22:51:30.902Z,30.67
2023-03-27T22:53:59.404Z,16.83
2023-03-27T22:56:27.637Z,10.15
2023-03-27T22:58:55.865Z,5.85
2023-03-27T23:01:24.211Z,4.50
2023-03-27T23:03:53.997Z,3.20
2023-03-27T23:06:23.620Z,2.40
2023-03-27T23:08:52.410Z,2.20
2023-03-27T23:11:21.152Z,1.70
2023-03-27T23:13:50.335Z,2.05
2023-03-27T23:16:18.514Z,1.67
2023-03-27T23:18:46.795Z,1.63
2023-03-27T23:21:17.918Z,1.73
2023-03-27T23:23:46.844Z,1.63
2023-03-27T23:26:18.205Z,1.67
2023-03-27T23:28:46.898Z,1.40
2023-03-27T23:31:16.570Z,1.60
2023-03-27T23:33:46.193Z,1.90
2023-03-27T23:36:17.804Z,1.90
2023-03-27T23:38:46.997Z,2.08
2023-03-27T23:41:17.273Z,2.17
2023-03-27T23:43:46.190Z,1.75
2023-03-27T23:46:14.746Z,2.10
2023-03-27T23:48:44.633Z,2.10
2023-03-27T23:51:15.083Z,2.00
2023-03-27T23:53:45.461Z,1.77
2023-03-27T23:56:14.049Z,2.10
2023-03-27T23:58:42.327Z,2.03
